Celebrity Silhouette — 9HA2583 — position and weather

sailwx.info

Track history (hours):
 
Tides and Currents Weather Stations Pressure Air Temp Water Temp Dewpoint Dewpoint Depression Visibility Wind Speed Wind Dir Waves Ship Positions

Celebrity Silhouette

Last reported at 2019-Jul-19 18:27 UTC. Time now 2019-Jul-19 18:36 UTC.
Position N 59°37' E 018°49'.

Length 319 m; draft 8.6 m.

Type: Passenger vessel. MMSI: 248939000.

Date/timePositionNaut miles runAvg speedWind from/ knotsBaromVisibWave heightAir tempDewpointWater temp
2019-Jul-19 18:27N 59°37' E 018°49'612.2
2019-Jul-19 18:00N 59°34' E 018°39'5 9.9
2019-Jul-19 17:30N 59°31' E 018°32'4 8.6
2019-Jul-19 17:00N 59°28' E 018°26'4 8.8
2019-Jul-19 16:30N 59°24' E 018°27'3 5.4
2019-Jul-19 16:00N 59°22' E 018°22'5484.7
2019-Jul-19 16:00N 59°18' E 018°18'4 7.3 240 / 101013.610.8 21.8-2.115.9
2019-Jul-19 15:31N 59°20' E 018°13'4 7.0
2019-Jul-19 15:00N 59°19' E 018°06'0 0.2
2019-Jul-19 14:28N 59°19' E 018°06'0 0.0
2019-Jul-19 13:58N 59°19' E 018°06'0 0.0
2019-Jul-19 13:28N 59°19' E 018°06'1 2.1
2019-Jul-19 13:00N 59°18' E 018°06'134.2 1013.010.8 25.8-27.713.2
2019-Jul-19 12:58N 59°19' E 018°06'0 0.0
2019-Jul-19 12:27N 59°19' E 018°06'0 0.0
2019-Jul-19 12:00N 59°19' E 018°06'0 0.0
2019-Jul-19 11:29N 59°19' E 018°06'0 0.0
2019-Jul-19 10:59N 59°19' E 018°06'0 0.0
2019-Jul-19 10:29N 59°19' E 018°06'0 0.0
2019-Jul-19 09:59N 59°19' E 018°06'0 0.0
2019-Jul-19 09:30N 59°19' E 018°06'1 1.9
2019-Jul-19 09:00N 59°18' E 018°06'136.7 1013.8 5.4 23.7-9.712.9
2019-Jul-19 08:58N 59°19' E 018°06'0 0.0
2019-Jul-19 08:28N 59°19' E 018°06'0 0.0
2019-Jul-19 07:58N 59°19' E 018°06'0 0.0
2019-Jul-19 07:28N 59°19' E 018°06'0 0.0
2019-Jul-19 07:00N 59°19' E 018°06'1 1.7
2019-Jul-19 06:30N 59°19' E 018°08'611.0
2019-Jul-19 06:00N 59°22' E 018°17'5 9.9
2019-Jul-19 05:31N 59°21' E 018°26'5 9.6
2019-Jul-19 05:01N 59°26' E 018°23'611.1
2019-Jul-19 04:30N 59°31' E 018°30'5 9.8
2019-Jul-19 04:00N 59°34' E 018°37'611.3
2019-Jul-19 03:30N 59°36' E 018°47'611.3
2019-Jul-19 03:01N 59°40' E 018°56'4229.2
2019-Jul-19 03:00N 59°36' E 018°54'1020.5 100 / 41013.910.8 15.912.715.9
2019-Jul-19 02:31N 59°43' E 019°07'816.9
2019-Jul-19 02:01N 59°46' E 019°23'612.2
2019-Jul-19 01:29N 59°48' E 019°35'714.4
2019-Jul-19 01:00N 59°46' E 019°49'5407.3
2019-Jul-19 01:00N 59°42' E 019°42'917.7 010 / 71009.010.8 17.013.417.0
2019-Jul-19 00:28N 59°40' E 020°00'818.4
2019-Jul-19 00:00N 59°33' E 020°09'1019.9
2019-Jul-18 23:30N 59°23' E 020°02'1020.4
2019-Jul-18 23:00N 59°15' E 019°51'1020.7
2019-Jul-18 22:30N 59°07' E 019°39'1020.6
2019-Jul-18 22:00N 58°58' E 019°27'1020.6
2019-Jul-18 21:30N 58°50' E 019°14'1020.9
2019-Jul-18 21:00N 58°42' E 019°01'382746.2
2019-Jul-18 21:00N 59°12' E 019°48'4999.7 280 / 41013.8 5.4 16.7 18.2
2019-Jul-18 20:30N 58°34' E 018°49'1120.9
2019-Jul-18 20:00N 58°25' E 018°39'1020.7
2019-Jul-18 19:30N 58°17' E 018°28'1320.5
2019-Jul-18 18:53N 58°06' E 018°13'1220.4
2019-Jul-18 18:19N 57°56' E 018°04'3420.6
2019-Jul-18 16:41N 57°24' E 017°44'710.6
2019-Jul-18 16:00N 57°18' E 017°36'1089.9 210 / 51013.810.8 18.8 9.618.4
2019-Jul-18 15:53N 57°08' E 017°34'820.7
2019-Jul-18 15:30N 57°01' E 017°29'1120.6
2019-Jul-18 14:59N 56°51' E 017°22'1020.8
2019-Jul-18 14:30N 56°42' E 017°15'1019.6
2019-Jul-18 14:00N 56°33' E 017°08'917.5
2019-Jul-18 13:30N 56°25' E 017°02'918.6
2019-Jul-18 13:00N 56°16' E 016°56'2164.9
2019-Jul-18 13:00N 56°18' E 016°54'1224.0 100 / 61010.510.8 19.011.318.1
2019-Jul-18 12:30N 56°07' E 016°49'1020.3
2019-Jul-18 12:00N 56°00' E 016°35'1020.5
2019-Jul-18 11:30N 55°54' E 016°21'1020.4
2019-Jul-18 11:00N 55°49' E 016°05'1020.6
2019-Jul-18 10:30N 55°44' E 015°49'1020.6
2019-Jul-18 10:00N 55°39' E 015°33'1020.7
2019-Jul-18 09:30N 55°35' E 015°16'919.0
2019-Jul-18 09:00N 55°31' E 015°01'917.4
2019-Jul-18 08:30N 55°27' E 014°48'918.4
2019-Jul-18 08:00N 55°20' E 014°36'4263.0
2019-Jul-18 08:00N 55°24' E 014°36'1327.0 330 / 41013.8 5.4 19.213.018.0
2019-Jul-18 07:30N 55°13' E 014°24'1020.3
2019-Jul-18 07:00N 55°05' E 014°13'1019.9
2019-Jul-18 06:30N 54°59' E 013°59'1020.9
2019-Jul-18 06:00N 54°56' E 013°42'1020.3
2019-Jul-18 05:30N 54°52' E 013°25'1020.4
2019-Jul-18 05:00N 54°49' E 013°08'1020.0
2019-Jul-18 04:30N 54°46' E 012°52'1019.4
2019-Jul-18 04:00N 54°42' E 012°36'1019.2
2019-Jul-18 03:30N 54°36' E 012°23'918.9
2019-Jul-18 03:00N 54°29' E 012°13'3211.7
2019-Jul-18 03:00N 54°30' E 012°18'1223.9 280 / 41014.010.8 16.713.317.3
2019-Jul-18 02:30N 54°24' E 012°01'1019.3
2019-Jul-18 02:00N 54°25' E 011°44'1020.1
2019-Jul-18 01:30N 54°30' E 011°29'1020.0
2019-Jul-18 01:00N 54°34' E 011°14'6421.2
2019-Jul-18 01:00N 54°30' E 011°06'1020.5 200 / 51013.910.8 17.311.818.3
2019-Jul-18 00:30N 54°39' E 010°59'816.7
2019-Jul-18 00:00N 54°46' E 010°52'917.8
2019-Jul-17 23:30N 54°55' E 010°54'917.9
2019-Jul-17 23:00N 55°03' E 011°02'918.7
2019-Jul-17 22:30N 55°12' E 011°05'1019.1
2019-Jul-17 22:00N 55°21' E 011°02'1019.5
2019-Jul-17 21:30N 55°29' E 010°53'1019.5
2019-Jul-17 21:00N 55°38' E 010°46'10 9.4
2019-Jul-17 20:00N 55°48' E 010°48'3125.0 210 / 131013.8 5.4 18.0 18.6
2019-Jul-17 18:45N 56°08' E 011°30'519.5
2019-Jul-17 18:30N 56°08' E 011°39'1019.5
2019-Jul-17 18:00N 56°10' E 011°56'1119.4
2019-Jul-17 17:27N 56°12' E 012°15'817.9
2019-Jul-17 17:00N 56°09' E 012°28'1019.1
2019-Jul-17 16:30N 56°02' E 012°40'817.0
2019-Jul-17 16:00N 55°54' E 012°45'816.2
2019-Jul-17 15:31N 55°46' E 012°42'510.3
2019-Jul-17 15:00N 55°42' E 012°36'016.3
2019-Jul-17 15:00N 55°42' E 012°36'0 0.3 360 / 141013.710.8 21.013.018.9
2019-Jul-17 14:30N 55°42' E 012°36'0 0.0
2019-Jul-17 13:59N 55°42' E 012°36'0 0.0
2019-Jul-17 13:29N 55°42' E 012°36'0 0.0
2019-Jul-17 12:59N 55°42' E 012°36'0 0.0
2019-Jul-17 12:29N 55°42' E 012°36'0 0.0
2019-Jul-17 12:00N 55°42' E 012°36'916.8
2019-Jul-17 11:28N 55°50' E 012°42'918.9
2019-Jul-17 11:00N 55°42' E 012°36'0 0.0
2019-Jul-17 10:30N 55°42' E 012°36'0 0.0
2019-Jul-17 10:00N 55°42' E 012°36'0 0.0
2019-Jul-17 09:30N 55°42' E 012°36'0 0.0
2019-Jul-17 09:00N 55°42' E 012°36'0 0.0
2019-Jul-17 08:30N 55°42' E 012°36'0 0.0
2019-Jul-17 08:00N 55°42' E 012°36'0 0.0
2019-Jul-17 07:30N 55°42' E 012°36'0 0.0
2019-Jul-17 07:00N 55°42' E 012°36'0 0.0
2019-Jul-17 06:30N 55°42' E 012°36'0 0.0
2019-Jul-17 06:00N 55°42' E 012°36'017.5
2019-Jul-17 06:00N 55°42' E 012°36'0 0.3 050 / 61014.2 5.4 20.0 9.319.0
2019-Jul-17 05:30N 55°42' E 012°36'0 0.0
2019-Jul-17 05:01N 55°42' E 012°36'0 0.3
2019-Jul-17 04:31N 55°42' E 012°36'2 4.4
2019-Jul-17 04:01N 55°44' E 012°39'510.9
2019-Jul-17 03:31N 55°49' E 012°43'713.7
2019-Jul-17 03:00N 55°55' E 012°38'7440.6
2019-Jul-17 03:00N 55°48' E 012°42'1429.0 020 / 101013.810.8 16.713.518.4
2019-Jul-17 02:30N 56°02' E 012°39'714.3
2019-Jul-17 02:00N 56°07' E 012°31'714.6
2019-Jul-17 01:30N 56°11' E 012°20'915.2
2019-Jul-17 00:54N 56°16' E 012°06'816.3
2019-Jul-17 00:26N 56°24' E 012°01'1 1.6
2019-Jul-17 00:00N 56°24' E 012°00'7397.1 320 / 171012.110.8 17.614.318.3
2019-Jul-16 23:58N 56°31' E 011°58'714.7
2019-Jul-16 23:30N 56°38' E 011°55'815.4
2019-Jul-16 23:00N 56°45' E 011°52'715.2
2019-Jul-16 22:30N 56°52' E 011°48'816.3
2019-Jul-16 22:00N 57°00' E 011°43'815.4
2019-Jul-16 21:30N 57°07' E 011°38'815.4
2019-Jul-16 21:00N 57°14' E 011°32'3179.0
2019-Jul-16 21:00N 57°12' E 011°30'1020.2 330 / 191014.0 5.4 17.612.318.6
2019-Jul-16 20:30N 57°22' E 011°28'815.3
2019-Jul-16 20:00N 57°29' E 011°22'815.5
2019-Jul-16 19:30N 57°34' E 011°11'816.7
2019-Jul-16 19:00N 57°39' E 010°59'816.8
2019-Jul-16 18:30N 57°45' E 010°48'714.5
2019-Jul-16 18:00N 57°48' E 010°36'815.6
2019-Jul-16 17:30N 57°46' E 010°22'816.0
2019-Jul-16 17:00N 57°43' E 010°08'191.5
2019-Jul-16 17:00N 57°42' E 010°06'715.3 300 / 151013.710.8 17.814.217.5
2019-Jul-16 16:30N 57°41' E 009°52'917.1
2019-Jul-16 16:00N 57°38' E 009°37'917.1
2019-Jul-16 15:30N 57°34' E 009°23'816.6
2019-Jul-16 15:00N 57°31' E 009°09'816.9
2019-Jul-16 14:30N 57°27' E 008°55'816.9
2019-Jul-16 14:00N 57°23' E 008°41'917.0
2019-Jul-16 13:30N 57°19' E 008°27'917.0
2019-Jul-16 13:00N 57°14' E 008°15'11848.4
2019-Jul-16 13:00N 57°06' E 008°00'3 5.5 310 / 101012.4 5.4 17.214.715.8
2019-Jul-16 12:30N 57°07' E 008°04'816.7
2019-Jul-16 12:00N 57°00' E 007°56'916.3
2019-Jul-16 11:28N 56°53' E 007°47'816.1
2019-Jul-16 10:58N 56°46' E 007°39'716.0
2019-Jul-16 10:30N 56°40' E 007°32'1119.0
2019-Jul-16 09:57N 56°31' E 007°21'1019.3
2019-Jul-16 09:26N 56°23' E 007°12'1328.6
2019-Jul-16 09:00N 56°12' E 007°00'3 8.6 330 / 301014.310.8 15.211.315.6
2019-Jul-16 08:38N 56°11' E 006°55'319.5
2019-Jul-16 08:28N 56°08' E 006°52'1319.5
2019-Jul-16 07:48N 55°57' E 006°39'619.5
2019-Jul-16 07:30N 55°52' E 006°34'1119.6
2019-Jul-16 06:55N 55°42' E 006°23'919.6
2019-Jul-16 06:28N 55°34' E 006°16'919.8
2019-Jul-16 06:00N 55°27' E 006°08'1020.0
2019-Jul-16 05:30N 55°18' E 005°58'1020.1
2019-Jul-16 05:00N 55°10' E 005°49'2299.5
2019-Jul-16 05:00N 55°12' E 005°48'1324.2 310 / 331016.1 5.4 14.513.115.6
2019-Jul-16 04:28N 55°01' E 005°39'1020.2
2019-Jul-16 04:00N 54°52' E 005°30'1520.1
2019-Jul-16 03:13N 54°39' E 005°15'4620.4
2019-Jul-16 01:00N 54°00' E 004°36'2618.2 300 / 191019.510.8 14.9 8.016.4
2019-Jul-15 23:34N 53°40' E 004°08'419.3
2019-Jul-15 23:21N 53°38' E 004°02'719.6
2019-Jul-15 23:00N 53°33' E 003°53'919.0
2019-Jul-15 22:30N 53°26' E 003°43'1019.3
2019-Jul-15 22:00N 53°17' E 003°36'1019.2
2019-Jul-15 21:30N 53°09' E 003°30'919.0
2019-Jul-15 21:01N 53°00' E 003°23'7408.2
2019-Jul-15 21:00N 52°54' E 003°18'3 5.7 310 / 81021.2 5.4 14.4 16.7
2019-Jul-15 20:30N 52°51' E 003°17'918.6
2019-Jul-15 20:01N 52°43' E 003°11'1118.4
2019-Jul-15 19:23N 52°32' E 003°03'615.7
2019-Jul-15 19:00N 52°27' E 002°58'815.3
2019-Jul-15 18:30N 52°21' E 002°52'815.4
2019-Jul-15 18:00N 52°14' E 002°47'815.7
2019-Jul-15 17:30N 52°06' E 002°44'815.8
2019-Jul-15 17:00N 51°58' E 002°42'1016.4
2019-Jul-15 16:25N 51°49' E 002°40'716.5
2019-Jul-15 16:00N 51°42' E 002°41'7637.2
2019-Jul-15 16:00N 51°48' E 002°36'1530.3 350 / 111022.410.8 16.413.018.1
2019-Jul-15 15:30N 51°33' E 002°42'816.6
2019-Jul-15 15:00N 51°25' E 002°42'510.0
2019-Jul-15 14:30N 51°22' E 002°48'815.1
2019-Jul-15 14:00N 51°24' E 002°60'713.9
2019-Jul-15 13:30N 51°22' E 003°11'2 3.8
2019-Jul-15 12:56N 51°20' E 003°12'0 0.0
2019-Jul-15 12:26N 51°20' E 003°12'0 0.0
2019-Jul-15 11:59N 51°20' E 003°12'0 0.0
2019-Jul-15 11:29N 51°20' E 003°12'0 0.0
2019-Jul-15 10:56N 51°20' E 003°12'0 0.0
2019-Jul-15 10:14N 51°20' E 003°12'0 0.0
2019-Jul-15 09:56N 51°20' E 003°12'0 0.0
2019-Jul-15 09:29N 51°20' E 003°12'2 4.8
2019-Jul-15 09:00N 51°18' E 003°12'215.7 020 / 131022.2 5.4 14.4 20.5
2019-Jul-15 08:50N 51°20' E 003°12'0 0.0
2019-Jul-15 08:26N 51°20' E 003°12'0 0.0
2019-Jul-15 07:59N 51°20' E 003°12'0 0.0
2019-Jul-15 07:26N 51°20' E 003°12'0 0.0
2019-Jul-15 06:59N 51°20' E 003°12'0 0.0
2019-Jul-15 06:29N 51°20' E 003°12'0 0.0
2019-Jul-15 05:59N 51°20' E 003°12'0 0.0
2019-Jul-15 05:29N 51°20' E 003°12'0 0.0
2019-Jul-15 04:59N 51°20' E 003°12'0 0.3
2019-Jul-15 04:30N 51°20' E 003°12'4 7.6
2019-Jul-15 04:00N 51°23' E 003°09'11722.1
2019-Jul-15 04:00N 51°18' E 002°54'510.3 350 / 131021.910.8 15.810.220.2
2019-Jul-15 03:30N 51°23' E 002°57'814.9
2019-Jul-15 03:00N 51°22' E 002°45'4 8.6
2019-Jul-15 02:31N 51°22' E 002°39'714.1
2019-Jul-15 02:00N 51°21' E 002°27'714.6
2019-Jul-15 01:30N 51°18' E 002°17'715.0
2019-Jul-15 01:00N 51°14' E 002°06'815.9
2019-Jul-15 00:30N 51°10' E 001°56'918.1
2019-Jul-15 00:01N 51°04' E 001°44'6379.8
2019-Jul-15 00:00N 51°06' E 001°54'1531.1 010 / 171022.610.8 16.4 5.418.6
2019-Jul-14 23:30N 50°58' E 001°34'1018.6
2019-Jul-14 23:00N 50°50' E 001°25'1118.0
2019-Jul-14 22:24N 50°41' E 001°17'819.0
2019-Jul-14 22:00N 50°36' E 001°09'1020.2
2019-Jul-14 21:29N 50°31' E 000°54'1020.4
2019-Jul-14 21:00N 50°28' E 000°39'5382.0
2019-Jul-14 21:00N 50°24' E 000°42'1221.5 030 / 211022.7 5.4 12.0 17.0
2019-Jul-14 20:25N 50°25' E 000°23'1017.9
2019-Jul-14 19:53N 50°23' E 000°08'718.2
2019-Jul-14 19:30N 50°21' W 000°02'1017.9
2019-Jul-14 18:57N 50°26' W 000°15'918.3
2019-Jul-14 18:29N 50°30' W 000°28'918.1
2019-Jul-14 18:00N 50°34' W 000°39'918.5
2019-Jul-14 17:30N 50°39' W 000°52'714.2
2019-Jul-14 17:01N 50°43' W 001°01'917.4
2019-Jul-14 16:31N 50°46' W 001°14'5 9.9
2019-Jul-14 16:00N 50°50' W 001°19'2116.4
2019-Jul-14 16:00N 50°48' W 001°18'714.3 050 / 101023.210.8 23.014.921.7
2019-Jul-14 15:30N 50°54' W 001°25'0 0.5
2019-Jul-14 14:43N 50°54' W 001°25'0 0.0
2019-Jul-14 14:22N 50°54' W 001°25'0 0.0
2019-Jul-14 13:46N 50°54' W 001°25'0 0.0
2019-Jul-14 13:25N 50°54' W 001°25'0 0.0
2019-Jul-14 12:55N 50°54' W 001°25'0 0.0
2019-Jul-14 12:28N 50°54' W 001°25'0 0.0
2019-Jul-14 11:55N 50°54' W 001°25'0 0.0
2019-Jul-14 11:25N 50°54' W 001°25'0 0.0
2019-Jul-14 10:55N 50°54' W 001°25'0 0.0
2019-Jul-14 10:25N 50°54' W 001°25'0 0.0
2019-Jul-14 09:58N 50°54' W 001°25'0 0.0
2019-Jul-14 09:28N 50°54' W 001°25'0 0.0
2019-Jul-14 08:49N 50°54' W 001°25'0 0.0
2019-Jul-14 08:25N 50°54' W 001°25'107249.0
2019-Jul-14 08:00N 50°48' E 001°24'1074863.7 040 / 81023.6 5.4 17.4 21.1
2019-Jul-14 07:58N 50°54' W 001°25'0 0.0
2019-Jul-14 07:28N 50°54' W 001°25'0 0.0
2019-Jul-14 06:52N 50°54' W 001°25'0 0.0
2019-Jul-14 06:04N 50°54' W 001°25'0 0.0
2019-Jul-14 05:55N 50°54' W 001°25'0 0.0
2019-Jul-14 05:28N 50°54' W 001°25'0 1.0
2019-Jul-14 05:00N 50°54' W 001°24'0 4.7 030 / 51023.210.8 16.613.021.0
2019-Jul-14 04:53N 50°54' W 001°25'0 0.1
2019-Jul-14 04:30N 50°54' W 001°25'1 2.8
2019-Jul-14 04:00N 50°53' W 001°24'5 9.1
2019-Jul-14 03:30N 50°50' W 001°18'4 8.0
2019-Jul-14 03:01N 50°46' W 001°15'815.7
2019-Jul-14 02:31N 50°44' W 001°03'713.7
2019-Jul-14 02:00N 50°40' W 000°55'612.0
2019-Jul-14 01:31N 50°38' W 000°46'714.6
2019-Jul-14 01:01N 50°37' W 000°35'714.8
2019-Jul-14 00:30N 50°35' W 000°23'714.9
2019-Jul-14 00:00N 50°33' W 000°12'151029.5
2019-Jul-14 00:00N 50°30' E 000°12'0 0.0 090 / 121022.810.8 17.515.417.7
2019-Jul-13 23:00N 50°30' E 000°12'635.4 100 / 131022.5 5.4 17.313.917.3
2019-Jul-13 22:50N 50°35' E 000°15'515.0
2019-Jul-13 22:30N 50°36' E 000°23'714.7
2019-Jul-13 22:00N 50°38' E 000°34'815.0
2019-Jul-13 21:30N 50°43' E 000°44'715.0
2019-Jul-13 21:00N 50°47' E 000°54'815.1
2019-Jul-13 20:30N 50°51' E 001°03'815.1
2019-Jul-13 20:00N 50°56' E 001°12'815.1
2019-Jul-13 19:30N 51°01' E 001°21'815.1
2019-Jul-13 19:01N 51°06' E 001°30'815.2
2019-Jul-13 18:30N 51°11' E 001°40'714.8
2019-Jul-13 18:01N 51°17' E 001°47'184.0
2019-Jul-13 18:00N 51°18' E 001°48'613.2 050 / 141022.710.8 19.811.918.4
2019-Jul-13 17:31N 51°24' E 001°52'815.5
2019-Jul-13 17:00N 51°30' E 001°59'816.1
2019-Jul-13 16:30N 51°36' E 002°08'917.5
2019-Jul-13 16:00N 51°42' E 002°19'917.4
2019-Jul-13 15:30N 51°48' E 002°28'817.0
2019-Jul-13 15:00N 51°55' E 002°36'171.2
2019-Jul-13 15:00N 51°54' E 002°36'919.0 360 / 151022.210.8 18.3 9.417.3
2019-Jul-13 14:30N 52°03' E 002°38'816.2
2019-Jul-13 14:00N 52°11' E 002°39'816.0
2019-Jul-13 13:30N 52°18' E 002°45'816.1
2019-Jul-13 13:00N 52°26' E 002°51'816.1
2019-Jul-13 12:29N 52°33' E 002°58'815.7
2019-Jul-13 12:01N 52°39' E 003°04'815.6
2019-Jul-13 11:29N 52°47' E 003°09'815.8
2019-Jul-13 11:01N 52°54' E 003°15'815.9
2019-Jul-13 10:30N 53°01' E 003°19'815.9
2019-Jul-13 10:00N 53°09' E 003°23'815.9
2019-Jul-13 09:28N 53°17' E 003°27'916.0
2019-Jul-13 08:53N 53°26' E 003°31'4 4.5
2019-Jul-13 08:00N 53°30' E 003°30'1759.9 360 / 191019.7 5.4 16.512.916.7
2019-Jul-13 07:42N 53°45' E 003°44'1017.9
2019-Jul-13 07:09N 53°51' E 003°58'2813.1
2019-Jul-13 05:00N 54°12' E 004°30'8923.7 340 / 221017.510.8 15.712.317.0
2019-Jul-13 01:14N 55°27' E 005°54'521.0
2019-Jul-13 01:00N 55°31' E 005°58'2111.2
2019-Jul-13 01:00N 55°30' E 006°00'1821.9 310 / 181015.310.8 14.612.515.9
2019-Jul-13 00:10N 55°46' E 006°15'621.0
2019-Jul-12 23:52N 55°51' E 006°21'821.0
2019-Jul-12 23:29N 55°58' E 006°30'1020.9
2019-Jul-12 23:00N 56°06' E 006°40'1121.1
2019-Jul-12 22:30N 56°14' E 006°52'1019.2
2019-Jul-12 22:00N 56°22' E 007°03'917.5
2019-Jul-12 21:30N 56°28' E 007°12'917.5
2019-Jul-12 21:01N 56°35' E 007°22'917.6
2019-Jul-12 20:30N 56°42' E 007°32'917.6
2019-Jul-12 20:00N 56°50' E 007°40'4277.6
2019-Jul-12 20:00N 56°54' E 007°42'510.0 320 / 151012.9 5.4 15.2 16.0
2019-Jul-12 19:30N 56°57' E 007°48'917.6
2019-Jul-12 19:00N 57°05' E 007°57'817.0
2019-Jul-12 18:31N 57°11' E 008°07'917.1
2019-Jul-12 18:00N 57°17' E 008°18'816.5
2019-Jul-12 17:30N 57°22' E 008°32'816.7
2019-Jul-12 17:00N 57°25' E 008°46'916.7
2019-Jul-12 16:30N 57°28' E 009°00'816.7
2019-Jul-12 16:00N 57°32' E 009°14'112069.3
2019-Jul-12 16:00N 57°24' E 009°00'1938.7 320 / 41011.110.8 17.015.116.0
2019-Jul-12 15:30N 57°35' E 009°28'816.7
2019-Jul-12 15:00N 57°39' E 009°42'816.6
2019-Jul-12 14:30N 57°41' E 009°57'817.0
2019-Jul-12 14:01N 57°44' E 010°11'917.6
2019-Jul-12 13:31N 57°47' E 010°27'917.4
2019-Jul-12 13:01N 57°47' E 010°44'917.1
2019-Jul-12 12:31N 57°43' E 010°57'917.1
2019-Jul-12 12:01N 57°37' E 011°09'917.2
2019-Jul-12 11:30N 57°31' E 011°21'816.5
2019-Jul-12 11:01N 57°24' E 011°29'816.5
2019-Jul-12 10:31N 57°16' E 011°34'918.1
2019-Jul-12 10:00N 57°08' E 011°40'917.7
2019-Jul-12 09:31N 56°60' E 011°45'917.6
2019-Jul-12 09:01N 56°51' E 011°51'6326.1
2019-Jul-12 09:00N 56°54' E 011°42'1326.0 320 / 41011.510.8 17.514.416.2
2019-Jul-12 08:31N 56°43' E 011°53'917.3
2019-Jul-12 08:00N 56°35' E 011°45'917.2
2019-Jul-12 07:30N 56°28' E 011°37'1216.9
2019-Jul-12 06:47N 56°18' E 011°25'517.4
2019-Jul-12 06:30N 56°14' E 011°20'1017.3
2019-Jul-12 05:55N 56°06' E 011°09'2628.6
2019-Jul-12 05:00N 55°42' E 010°48'1610.4 120 / 71010.710.8 15.614.412.9
2019-Jul-12 03:28N 55°27' E 010°57'1118.0
2019-Jul-12 02:52N 55°17' E 011°04'616.8
2019-Jul-12 02:30N 55°11' E 011°04'1716.9
2019-Jul-12 01:30N 54°55' E 010°54'917.8
2019-Jul-12 01:01N 54°46' E 010°53'5292.4
2019-Jul-12 01:00N 54°42' E 010°48'715.5 140 / 81011.2 5.4 17.813.417.4
2019-Jul-12 00:31N 54°40' E 011°00'917.7
2019-Jul-12 00:00N 54°35' E 011°13'918.5
2019-Jul-11 23:31N 54°31' E 011°28'917.8
2019-Jul-11 23:01N 54°27' E 011°42'917.3
2019-Jul-11 22:30N 54°23' E 011°55'916.4
2019-Jul-11 21:58N 54°16' E 012°04'7 9.4
2019-Jul-11 21:16N 54°10' E 012°06'0 1.3
2019-Jul-11 21:00N 54°10' E 012°06'5 5.2
2019-Jul-11 20:00N 54°06' E 012°00'5 7.2 030 / 31012.3 5.4 21.0 15.0
2019-Jul-11 19:15N 54°10' E 012°06'4 3.5
2019-Jul-11 18:00N 54°06' E 012°06'4 1.0 030 / 61012.210.8 19.011.915.6
2019-Jul-11 13:36N 54°10' E 012°06'0 0.0
2019-Jul-11 13:27N 54°10' E 012°06'512.0
2019-Jul-11 13:00N 54°06' E 012°00'5111.8 010 / 101013.210.8 18.0 9.218.5
2019-Jul-11 12:57N 54°10' E 012°06'0 0.0
2019-Jul-11 12:24N 54°10' E 012°06'0 0.0
2019-Jul-11 11:57N 54°10' E 012°06'0 0.0
2019-Jul-11 11:27N 54°10' E 012°06'0 0.0
2019-Jul-11 10:54N 54°10' E 012°06'0 0.0
2019-Jul-11 10:24N 54°10' E 012°06'513.5
2019-Jul-11 10:00N 54°06' E 012°00'527.2 010 / 81014.3 5.4 16.6 15.8
2019-Jul-11 09:48N 54°10' E 012°06'0 0.0
2019-Jul-11 09:03N 54°10' E 012°06'0 0.0
2019-Jul-11 08:51N 54°10' E 012°06'0 0.0
2019-Jul-11 08:24N 54°10' E 012°06'0 0.0
2019-Jul-11 07:57N 54°10' E 012°06'0 0.0
2019-Jul-11 07:30N 54°10' E 012°06'0 0.0
2019-Jul-11 07:00N 54°10' E 012°06'0 0.1
2019-Jul-11 06:30N 54°10' E 012°06'2 4.1
2019-Jul-11 05:57N 54°12' E 012°04'3 5.5
2019-Jul-11 05:25N 54°15' E 012°02'614.2
2019-Jul-11 05:00N 54°21' E 011°58'612.1
2019-Jul-11 04:31N 54°26' E 012°03'713.5
2019-Jul-11 04:00N 54°30' E 012°13'137.1
2019-Jul-11 04:00N 54°30' E 012°12'815.9 300 / 191014.510.8 13.311.414.1
2019-Jul-11 03:30N 54°37' E 012°17'815.6
2019-Jul-11 03:00N 54°42' E 012°28'816.2
2019-Jul-11 02:30N 54°46' E 012°40'1116.1
2019-Jul-11 01:50N 54°51' E 012°57'716.1
2019-Jul-11 01:25N 54°53' E 013°08'917.7
2019-Jul-11 00:53N 54°56' E 013°23'821.1
2019-Jul-11 00:30N 54°59' E 013°37'510.4
2019-Jul-11 00:00N 54°54' E 013°36'1312101.1 330 / 281014.010.8 16.811.116.3
2019-Jul-10 23:59N 55°03' E 013°54'1020.3
2019-Jul-10 23:30N 55°08' E 014°08'1021.0
2019-Jul-10 23:00N 55°16' E 014°19'1121.0
2019-Jul-10 22:30N 55°24' E 014°33'1020.6
2019-Jul-10 22:00N 55°30' E 014°47'1020.6
2019-Jul-10 21:30N 55°36' E 015°02'1020.6
2019-Jul-10 21:00N 55°41' E 015°18'1220.5
2019-Jul-10 20:27N 55°46' E 015°37'714.9
2019-Jul-10 20:00N 55°48' E 015°48'3246.7 230 / 131013.210.8 14.7 15.0
2019-Jul-10 19:59N 55°50' E 015°52'6220.6
2019-Jul-10 17:00N 56°24' E 017°24'8020.0 340 / 161011.910.8 15.9 8.715.1
2019-Jul-10 13:00N 57°18' E 019°12'8220.4 340 / 141010.810.8 14.810.9
2019-Jul-10 09:00N 58°24' E 020°42'3225.6 340 / 151009.1 5.4 14.0 14.0
2019-Jul-10 07:44N 58°51' E 021°15'621.1
2019-Jul-10 07:25N 58°57' E 021°21'1021.3
2019-Jul-10 06:56N 59°06' E 021°31'920.9
2019-Jul-10 06:30N 59°13' E 021°42'1325.5
2019-Jul-10 06:00N 59°18' E 022°06'617.2 360 / 191007.810.8 14.811.515.4
2019-Jul-10 05:38N 59°23' E 022°13'921.2
2019-Jul-10 05:12N 59°28' E 022°28'420.7
2019-Jul-10 05:00N 59°30' E 022°35'1121.3
2019-Jul-10 04:30N 59°33' E 022°55'1121.5
2019-Jul-10 04:00N 59°36' E 023°15'1121.4
2019-Jul-10 03:31N 59°39' E 023°36'1121.3
2019-Jul-10 03:00N 59°42' E 023°56'1121.2
2019-Jul-10 02:30N 59°45' E 024°16'1121.2
2019-Jul-10 02:01N 59°48' E 024°36'1121.3
2019-Jul-10 01:30N 59°50' E 024°57'1121.3
2019-Jul-10 01:00N 59°53' E 025°17'1121.1
2019-Jul-10 00:30N 59°55' E 025°38'2 4.1
2019-Jul-10 00:00N 59°54' E 025°42'1462.2 010 / 201006.110.8 14.2 9.915.6
2019-Jul-09 23:46N 59°58' E 026°08'621.4
2019-Jul-09 23:30N 59°60' E 026°19'1020.0
2019-Jul-09 23:00N 60°01' E 026°39'1020.8
2019-Jul-09 22:31N 59°60' E 026°59'1020.3
2019-Jul-09 22:00N 60°03' E 027°18'1020.9
2019-Jul-09 21:30N 60°09' E 027°36'1019.6
2019-Jul-09 21:00N 60°11' E 027°55'1020.8
2019-Jul-09 20:30N 60°08' E 028°15'1019.8
2019-Jul-09 20:00N 60°03' E 028°32'5321.6
2019-Jul-09 20:00N 60°00' E 028°24'1530.1 020 / 211005.3 5.4 12.3 17.0
2019-Jul-09 19:30N 60°03' E 028°53'  
Track history (hours):
 
Tides and Currents Weather Stations Pressure Air Temp Water Temp Dewpoint Dewpoint Depression Visibility Wind Speed Wind Dir Waves Ship Positions

Celebrity Silhouette

Last reported at 2019-Jul-19 18:27 UTC. Time now 2019-Jul-19 18:36 UTC.
Position N 59°37' E 018°49'.

Length 319 m; draft 8.6 m.

Type: Passenger vessel. MMSI: 248939000.

Date/timePositionNaut miles runAvg speedWind from/ knotsBaromVisibWave heightAir tempDewpointWater temp
2019-Jul-19 18:27N 59°37' E 018°49'612.2
2019-Jul-19 18:00N 59°34' E 018°39'5 9.9
2019-Jul-19 17:30N 59°31' E 018°32'4 8.6
2019-Jul-19 17:00N 59°28' E 018°26'4 8.8
2019-Jul-19 16:30N 59°24' E 018°27'3 5.4
2019-Jul-19 16:00N 59°22' E 018°22'5484.7
2019-Jul-19 16:00N 59°18' E 018°18'4 7.3 240 / 101013.610.8 21.8-2.115.9
2019-Jul-19 15:31N 59°20' E 018°13'4 7.0
2019-Jul-19 15:00N 59°19' E 018°06'0 0.2
2019-Jul-19 14:28N 59°19' E 018°06'0 0.0
2019-Jul-19 13:58N 59°19' E 018°06'0 0.0
2019-Jul-19 13:28N 59°19' E 018°06'1 2.1
2019-Jul-19 13:00N 59°18' E 018°06'134.2 1013.010.8 25.8-27.713.2
2019-Jul-19 12:58N 59°19' E 018°06'0 0.0
2019-Jul-19 12:27N 59°19' E 018°06'0 0.0
2019-Jul-19 12:00N 59°19' E 018°06'0 0.0
2019-Jul-19 11:29N 59°19' E 018°06'0 0.0
2019-Jul-19 10:59N 59°19' E 018°06'0 0.0
2019-Jul-19 10:29N 59°19' E 018°06'0 0.0
2019-Jul-19 09:59N 59°19' E 018°06'0 0.0
2019-Jul-19 09:30N 59°19' E 018°06'1 1.9
2019-Jul-19 09:00N 59°18' E 018°06'136.7 1013.8 5.4 23.7-9.712.9
2019-Jul-19 08:58N 59°19' E 018°06'0 0.0
2019-Jul-19 08:28N 59°19' E 018°06'0 0.0
2019-Jul-19 07:58N 59°19' E 018°06'0 0.0
2019-Jul-19 07:28N 59°19' E 018°06'0 0.0
2019-Jul-19 07:00N 59°19' E 018°06'1 1.7
2019-Jul-19 06:30N 59°19' E 018°08'611.0
2019-Jul-19 06:00N 59°22' E 018°17'5 9.9
2019-Jul-19 05:31N 59°21' E 018°26'5 9.6
2019-Jul-19 05:01N 59°26' E 018°23'611.1
2019-Jul-19 04:30N 59°31' E 018°30'5 9.8
2019-Jul-19 04:00N 59°34' E 018°37'611.3
2019-Jul-19 03:30N 59°36' E 018°47'611.3
2019-Jul-19 03:01N 59°40' E 018°56'4229.2
2019-Jul-19 03:00N 59°36' E 018°54'1020.5 100 / 41013.910.8 15.912.715.9
2019-Jul-19 02:31N 59°43' E 019°07'816.9
2019-Jul-19 02:01N 59°46' E 019°23'612.2
2019-Jul-19 01:29N 59°48' E 019°35'714.4
2019-Jul-19 01:00N 59°46' E 019°49'5407.3
2019-Jul-19 01:00N 59°42' E 019°42'917.7 010 / 71009.010.8 17.013.417.0
2019-Jul-19 00:28N 59°40' E 020°00'818.4
2019-Jul-19 00:00N 59°33' E 020°09'1019.9
2019-Jul-18 23:30N 59°23' E 020°02'1020.4
2019-Jul-18 23:00N 59°15' E 019°51'1020.7
2019-Jul-18 22:30N 59°07' E 019°39'1020.6
2019-Jul-18 22:00N 58°58' E 019°27'1020.6
2019-Jul-18 21:30N 58°50' E 019°14'1020.9
2019-Jul-18 21:00N 58°42' E 019°01'382746.2
2019-Jul-18 21:00N 59°12' E 019°48'4999.7 280 / 41013.8 5.4 16.7 18.2
2019-Jul-18 20:30N 58°34' E 018°49'1120.9
2019-Jul-18 20:00N 58°25' E 018°39'1020.7
2019-Jul-18 19:30N 58°17' E 018°28'1320.5
2019-Jul-18 18:53N 58°06' E 018°13'1220.4
2019-Jul-18 18:19N 57°56' E 018°04'3420.6
2019-Jul-18 16:41N 57°24' E 017°44'710.6
2019-Jul-18 16:00N 57°18' E 017°36'1089.9 210 / 51013.810.8 18.8 9.618.4
2019-Jul-18 15:53N 57°08' E 017°34'820.7
2019-Jul-18 15:30N 57°01' E 017°29'1120.6
2019-Jul-18 14:59N 56°51' E 017°22'1020.8
2019-Jul-18 14:30N 56°42' E 017°15'1019.6
2019-Jul-18 14:00N 56°33' E 017°08'917.5
2019-Jul-18 13:30N 56°25' E 017°02'918.6
2019-Jul-18 13:00N 56°16' E 016°56'2164.9
2019-Jul-18 13:00N 56°18' E 016°54'1224.0 100 / 61010.510.8 19.011.318.1
2019-Jul-18 12:30N 56°07' E 016°49'1020.3
2019-Jul-18 12:00N 56°00' E 016°35'1020.5
2019-Jul-18 11:30N 55°54' E 016°21'1020.4
2019-Jul-18 11:00N 55°49' E 016°05'1020.6
2019-Jul-18 10:30N 55°44' E 015°49'1020.6
2019-Jul-18 10:00N 55°39' E 015°33'1020.7
2019-Jul-18 09:30N 55°35' E 015°16'919.0
2019-Jul-18 09:00N 55°31' E 015°01'917.4
2019-Jul-18 08:30N 55°27' E 014°48'918.4
2019-Jul-18 08:00N 55°20' E 014°36'4263.0
2019-Jul-18 08:00N 55°24' E 014°36'1327.0 330 / 41013.8 5.4 19.213.018.0
2019-Jul-18 07:30N 55°13' E 014°24'1020.3
2019-Jul-18 07:00N 55°05' E 014°13'1019.9
2019-Jul-18 06:30N 54°59' E 013°59'1020.9
2019-Jul-18 06:00N 54°56' E 013°42'1020.3
2019-Jul-18 05:30N 54°52' E 013°25'1020.4
2019-Jul-18 05:00N 54°49' E 013°08'1020.0
2019-Jul-18 04:30N 54°46' E 012°52'1019.4
2019-Jul-18 04:00N 54°42' E 012°36'1019.2
2019-Jul-18 03:30N 54°36' E 012°23'918.9
2019-Jul-18 03:00N 54°29' E 012°13'3211.7
2019-Jul-18 03:00N 54°30' E 012°18'1223.9 280 / 41014.010.8 16.713.317.3
2019-Jul-18 02:30N 54°24' E 012°01'1019.3
2019-Jul-18 02:00N 54°25' E 011°44'1020.1
2019-Jul-18 01:30N 54°30' E 011°29'1020.0
2019-Jul-18 01:00N 54°34' E 011°14'6421.2
2019-Jul-18 01:00N 54°30' E 011°06'1020.5 200 / 51013.910.8 17.311.818.3
2019-Jul-18 00:30N 54°39' E 010°59'816.7
2019-Jul-18 00:00N 54°46' E 010°52'917.8
2019-Jul-17 23:30N 54°55' E 010°54'917.9
2019-Jul-17 23:00N 55°03' E 011°02'918.7
2019-Jul-17 22:30N 55°12' E 011°05'1019.1
2019-Jul-17 22:00N 55°21' E 011°02'1019.5
2019-Jul-17 21:30N 55°29' E 010°53'1019.5
2019-Jul-17 21:00N 55°38' E 010°46'10 9.4
2019-Jul-17 20:00N 55°48' E 010°48'3125.0 210 / 131013.8 5.4 18.0 18.6
2019-Jul-17 18:45N 56°08' E 011°30'519.5
2019-Jul-17 18:30N 56°08' E 011°39'1019.5
2019-Jul-17 18:00N 56°10' E 011°56'1119.4
2019-Jul-17 17:27N 56°12' E 012°15'817.9
2019-Jul-17 17:00N 56°09' E 012°28'1019.1
2019-Jul-17 16:30N 56°02' E 012°40'817.0
2019-Jul-17 16:00N 55°54' E 012°45'816.2
2019-Jul-17 15:31N 55°46' E 012°42'510.3
2019-Jul-17 15:00N 55°42' E 012°36'016.3
2019-Jul-17 15:00N 55°42' E 012°36'0 0.3 360 / 141013.710.8 21.013.018.9
2019-Jul-17 14:30N 55°42' E 012°36'0 0.0
2019-Jul-17 13:59N 55°42' E 012°36'0 0.0
2019-Jul-17 13:29N 55°42' E 012°36'0 0.0
2019-Jul-17 12:59N 55°42' E 012°36'0 0.0
2019-Jul-17 12:29N 55°42' E 012°36'0 0.0
2019-Jul-17 12:00N 55°42' E 012°36'916.8
2019-Jul-17 11:28N 55°50' E 012°42'918.9
2019-Jul-17 11:00N 55°42' E 012°36'0 0.0
2019-Jul-17 10:30N 55°42' E 012°36'0 0.0
2019-Jul-17 10:00N 55°42' E 012°36'0 0.0
2019-Jul-17 09:30N 55°42' E 012°36'0 0.0
2019-Jul-17 09:00N 55°42' E 012°36'0 0.0
2019-Jul-17 08:30N 55°42' E 012°36'0 0.0
2019-Jul-17 08:00N 55°42' E 012°36'0 0.0
2019-Jul-17 07:30N 55°42' E 012°36'0 0.0
2019-Jul-17 07:00N 55°42' E 012°36'0 0.0
2019-Jul-17 06:30N 55°42' E 012°36'0 0.0
2019-Jul-17 06:00N 55°42' E 012°36'017.5
2019-Jul-17 06:00N 55°42' E 012°36'0 0.3 050 / 61014.2 5.4 20.0 9.319.0
2019-Jul-17 05:30N 55°42' E 012°36'0 0.0
2019-Jul-17 05:01N 55°42' E 012°36'0 0.3
2019-Jul-17 04:31N 55°42' E 012°36'2 4.4
2019-Jul-17 04:01N 55°44' E 012°39'510.9
2019-Jul-17 03:31N 55°49' E 012°43'713.7
2019-Jul-17 03:00N 55°55' E 012°38'7440.6
2019-Jul-17 03:00N 55°48' E 012°42'1429.0 020 / 101013.810.8 16.713.518.4
2019-Jul-17 02:30N 56°02' E 012°39'714.3
2019-Jul-17 02:00N 56°07' E 012°31'714.6
2019-Jul-17 01:30N 56°11' E 012°20'915.2
2019-Jul-17 00:54N 56°16' E 012°06'816.3
2019-Jul-17 00:26N 56°24' E 012°01'1 1.6
2019-Jul-17 00:00N 56°24' E 012°00'7397.1 320 / 171012.110.8 17.614.318.3
2019-Jul-16 23:58N 56°31' E 011°58'714.7
2019-Jul-16 23:30N 56°38' E 011°55'815.4
2019-Jul-16 23:00N 56°45' E 011°52'715.2
2019-Jul-16 22:30N 56°52' E 011°48'816.3
2019-Jul-16 22:00N 57°00' E 011°43'815.4
2019-Jul-16 21:30N 57°07' E 011°38'815.4
2019-Jul-16 21:00N 57°14' E 011°32'3179.0
2019-Jul-16 21:00N 57°12' E 011°30'1020.2 330 / 191014.0 5.4 17.612.318.6
2019-Jul-16 20:30N 57°22' E 011°28'815.3
2019-Jul-16 20:00N 57°29' E 011°22'815.5
2019-Jul-16 19:30N 57°34' E 011°11'816.7
2019-Jul-16 19:00N 57°39' E 010°59'816.8
2019-Jul-16 18:30N 57°45' E 010°48'714.5
2019-Jul-16 18:00N 57°48' E 010°36'815.6
2019-Jul-16 17:30N 57°46' E 010°22'816.0
2019-Jul-16 17:00N 57°43' E 010°08'191.5
2019-Jul-16 17:00N 57°42' E 010°06'715.3 300 / 151013.710.8 17.814.217.5
2019-Jul-16 16:30N 57°41' E 009°52'917.1
2019-Jul-16 16:00N 57°38' E 009°37'917.1
2019-Jul-16 15:30N 57°34' E 009°23'816.6
2019-Jul-16 15:00N 57°31' E 009°09'816.9
2019-Jul-16 14:30N 57°27' E 008°55'816.9
2019-Jul-16 14:00N 57°23' E 008°41'917.0
2019-Jul-16 13:30N 57°19' E 008°27'917.0
2019-Jul-16 13:00N 57°14' E 008°15'11848.4
2019-Jul-16 13:00N 57°06' E 008°00'3 5.5 310 / 101012.4 5.4 17.214.715.8
2019-Jul-16 12:30N 57°07' E 008°04'816.7
2019-Jul-16 12:00N 57°00' E 007°56'916.3
2019-Jul-16 11:28N 56°53' E 007°47'816.1
2019-Jul-16 10:58N 56°46' E 007°39'716.0
2019-Jul-16 10:30N 56°40' E 007°32'1119.0
2019-Jul-16 09:57N 56°31' E 007°21'1019.3
2019-Jul-16 09:26N 56°23' E 007°12'1328.6
2019-Jul-16 09:00N 56°12' E 007°00'3 8.6 330 / 301014.310.8 15.211.315.6
2019-Jul-16 08:38N 56°11' E 006°55'319.5
2019-Jul-16 08:28N 56°08' E 006°52'1319.5
2019-Jul-16 07:48N 55°57' E 006°39'619.5
2019-Jul-16 07:30N 55°52' E 006°34'1119.6
2019-Jul-16 06:55N 55°42' E 006°23'919.6
2019-Jul-16 06:28N 55°34' E 006°16'919.8
2019-Jul-16 06:00N 55°27' E 006°08'1020.0
2019-Jul-16 05:30N 55°18' E 005°58'1020.1
2019-Jul-16 05:00N 55°10' E 005°49'2299.5
2019-Jul-16 05:00N 55°12' E 005°48'1324.2 310 / 331016.1 5.4 14.513.115.6
2019-Jul-16 04:28N 55°01' E 005°39'1020.2
2019-Jul-16 04:00N 54°52' E 005°30'1520.1
2019-Jul-16 03:13N 54°39' E 005°15'4620.4
2019-Jul-16 01:00N 54°00' E 004°36'2618.2 300 / 191019.510.8 14.9 8.016.4
2019-Jul-15 23:34N 53°40' E 004°08'419.3
2019-Jul-15 23:21N 53°38' E 004°02'719.6
2019-Jul-15 23:00N 53°33' E 003°53'919.0
2019-Jul-15 22:30N 53°26' E 003°43'1019.3
2019-Jul-15 22:00N 53°17' E 003°36'1019.2
2019-Jul-15 21:30N 53°09' E 003°30'919.0
2019-Jul-15 21:01N 53°00' E 003°23'7408.2
2019-Jul-15 21:00N 52°54' E 003°18'3 5.7 310 / 81021.2 5.4 14.4 16.7
2019-Jul-15 20:30N 52°51' E 003°17'918.6
2019-Jul-15 20:01N 52°43' E 003°11'1118.4
2019-Jul-15 19:23N 52°32' E 003°03'615.7
2019-Jul-15 19:00N 52°27' E 002°58'815.3
2019-Jul-15 18:30N 52°21' E 002°52'815.4
2019-Jul-15 18:00N 52°14' E 002°47'815.7
2019-Jul-15 17:30N 52°06' E 002°44'815.8
2019-Jul-15 17:00N 51°58' E 002°42'1016.4
2019-Jul-15 16:25N 51°49' E 002°40'716.5
2019-Jul-15 16:00N 51°42' E 002°41'7637.2
2019-Jul-15 16:00N 51°48' E 002°36'1530.3 350 / 111022.410.8 16.413.018.1
2019-Jul-15 15:30N 51°33' E 002°42'816.6
2019-Jul-15 15:00N 51°25' E 002°42'510.0
2019-Jul-15 14:30N 51°22' E 002°48'815.1
2019-Jul-15 14:00N 51°24' E 002°60'713.9
2019-Jul-15 13:30N 51°22' E 003°11'2 3.8
2019-Jul-15 12:56N 51°20' E 003°12'0 0.0
2019-Jul-15 12:26N 51°20' E 003°12'0 0.0
2019-Jul-15 11:59N 51°20' E 003°12'0 0.0
2019-Jul-15 11:29N 51°20' E 003°12'0 0.0
2019-Jul-15 10:56N 51°20' E 003°12'0 0.0
2019-Jul-15 10:14N 51°20' E 003°12'0 0.0
2019-Jul-15 09:56N 51°20' E 003°12'0 0.0
2019-Jul-15 09:29N 51°20' E 003°12'2 4.8
2019-Jul-15 09:00N 51°18' E 003°12'215.7 020 / 131022.2 5.4 14.4 20.5
2019-Jul-15 08:50N 51°20' E 003°12'0 0.0
2019-Jul-15 08:26N 51°20' E 003°12'0 0.0
2019-Jul-15 07:59N 51°20' E 003°12'0 0.0
2019-Jul-15 07:26N 51°20' E 003°12'0 0.0
2019-Jul-15 06:59N 51°20' E 003°12'0 0.0
2019-Jul-15 06:29N 51°20' E 003°12'0 0.0
2019-Jul-15 05:59N 51°20' E 003°12'0 0.0
2019-Jul-15 05:29N 51°20' E 003°12'0 0.0
2019-Jul-15 04:59N 51°20' E 003°12'0 0.3
2019-Jul-15 04:30N 51°20' E 003°12'4 7.6
2019-Jul-15 04:00N 51°23' E 003°09'11722.1
2019-Jul-15 04:00N 51°18' E 002°54'510.3 350 / 131021.910.8 15.810.220.2
2019-Jul-15 03:30N 51°23' E 002°57'814.9
2019-Jul-15 03:00N 51°22' E 002°45'4 8.6
2019-Jul-15 02:31N 51°22' E 002°39'714.1
2019-Jul-15 02:00N 51°21' E 002°27'714.6
2019-Jul-15 01:30N 51°18' E 002°17'715.0
2019-Jul-15 01:00N 51°14' E 002°06'815.9
2019-Jul-15 00:30N 51°10' E 001°56'918.1
2019-Jul-15 00:01N 51°04' E 001°44'6379.8
2019-Jul-15 00:00N 51°06' E 001°54'1531.1 010 / 171022.610.8 16.4 5.418.6
2019-Jul-14 23:30N 50°58' E 001°34'1018.6
2019-Jul-14 23:00N 50°50' E 001°25'1118.0
2019-Jul-14 22:24N 50°41' E 001°17'819.0
2019-Jul-14 22:00N 50°36' E 001°09'1020.2
2019-Jul-14 21:29N 50°31' E 000°54'1020.4
2019-Jul-14 21:00N 50°28' E 000°39'5382.0
2019-Jul-14 21:00N 50°24' E 000°42'1221.5 030 / 211022.7 5.4 12.0 17.0
2019-Jul-14 20:25N 50°25' E 000°23'1017.9
2019-Jul-14 19:53N 50°23' E 000°08'718.2
2019-Jul-14 19:30N 50°21' W 000°02'1017.9
2019-Jul-14 18:57N 50°26' W 000°15'918.3
2019-Jul-14 18:29N 50°30' W 000°28'918.1
2019-Jul-14 18:00N 50°34' W 000°39'918.5
2019-Jul-14 17:30N 50°39' W 000°52'714.2
2019-Jul-14 17:01N 50°43' W 001°01'917.4
2019-Jul-14 16:31N 50°46' W 001°14'5 9.9
2019-Jul-14 16:00N 50°50' W 001°19'2116.4
2019-Jul-14 16:00N 50°48' W 001°18'714.3 050 / 101023.210.8 23.014.921.7
2019-Jul-14 15:30N 50°54' W 001°25'0 0.5
2019-Jul-14 14:43N 50°54' W 001°25'0 0.0
2019-Jul-14 14:22N 50°54' W 001°25'0 0.0
2019-Jul-14 13:46N 50°54' W 001°25'0 0.0
2019-Jul-14 13:25N 50°54' W 001°25'0 0.0
2019-Jul-14 12:55N 50°54' W 001°25'0 0.0
2019-Jul-14 12:28N 50°54' W 001°25'0 0.0
2019-Jul-14 11:55N 50°54' W 001°25'0 0.0
2019-Jul-14 11:25N 50°54' W 001°25'0 0.0
2019-Jul-14 10:55N 50°54' W 001°25'0 0.0
2019-Jul-14 10:25N 50°54' W 001°25'0 0.0
2019-Jul-14 09:58N 50°54' W 001°25'0 0.0
2019-Jul-14 09:28N 50°54' W 001°25'0 0.0
2019-Jul-14 08:49N 50°54' W 001°25'0 0.0
2019-Jul-14 08:25N 50°54' W 001°25'107249.0
2019-Jul-14 08:00N 50°48' E 001°24'1074863.7 040 / 81023.6 5.4 17.4 21.1
2019-Jul-14 07:58N 50°54' W 001°25'0 0.0
2019-Jul-14 07:28N 50°54' W 001°25'0 0.0
2019-Jul-14 06:52N 50°54' W 001°25'0 0.0
2019-Jul-14 06:04N 50°54' W 001°25'0 0.0
2019-Jul-14 05:55N 50°54' W 001°25'0 0.0
2019-Jul-14 05:28N 50°54' W 001°25'0 1.0
2019-Jul-14 05:00N 50°54' W 001°24'0 4.7 030 / 51023.210.8 16.613.021.0
2019-Jul-14 04:53N 50°54' W 001°25'0 0.1
2019-Jul-14 04:30N 50°54' W 001°25'1 2.8
2019-Jul-14 04:00N 50°53' W 001°24'5 9.1
2019-Jul-14 03:30N 50°50' W 001°18'4 8.0
2019-Jul-14 03:01N 50°46' W 001°15'815.7
2019-Jul-14 02:31N 50°44' W 001°03'713.7
2019-Jul-14 02:00N 50°40' W 000°55'612.0
2019-Jul-14 01:31N 50°38' W 000°46'714.6
2019-Jul-14 01:01N 50°37' W 000°35'714.8
2019-Jul-14 00:30N 50°35' W 000°23'714.9
2019-Jul-14 00:00N 50°33' W 000°12'151029.5
2019-Jul-14 00:00N 50°30' E 000°12'0 0.0 090 / 121022.810.8 17.515.417.7
2019-Jul-13 23:00N 50°30' E 000°12'635.4 100 / 131022.5 5.4 17.313.917.3
2019-Jul-13 22:50N 50°35' E 000°15'515.0
2019-Jul-13 22:30N 50°36' E 000°23'714.7
2019-Jul-13 22:00N 50°38' E 000°34'815.0
2019-Jul-13 21:30N 50°43' E 000°44'715.0
2019-Jul-13 21:00N 50°47' E 000°54'815.1
2019-Jul-13 20:30N 50°51' E 001°03'815.1
2019-Jul-13 20:00N 50°56' E 001°12'815.1
2019-Jul-13 19:30N 51°01' E 001°21'815.1
2019-Jul-13 19:01N 51°06' E 001°30'815.2
2019-Jul-13 18:30N 51°11' E 001°40'714.8
2019-Jul-13 18:01N 51°17' E 001°47'184.0
2019-Jul-13 18:00N 51°18' E 001°48'613.2 050 / 141022.710.8 19.811.918.4
2019-Jul-13 17:31N 51°24' E 001°52'815.5
2019-Jul-13 17:00N 51°30' E 001°59'816.1
2019-Jul-13 16:30N 51°36' E 002°08'917.5
2019-Jul-13 16:00N 51°42' E 002°19'917.4
2019-Jul-13 15:30N 51°48' E 002°28'817.0
2019-Jul-13 15:00N 51°55' E 002°36'171.2
2019-Jul-13 15:00N 51°54' E 002°36'919.0 360 / 151022.210.8 18.3 9.417.3
2019-Jul-13 14:30N 52°03' E 002°38'816.2
2019-Jul-13 14:00N 52°11' E 002°39'816.0
2019-Jul-13 13:30N 52°18' E 002°45'816.1
2019-Jul-13 13:00N 52°26' E 002°51'816.1
2019-Jul-13 12:29N 52°33' E 002°58'815.7
2019-Jul-13 12:01N 52°39' E 003°04'815.6
2019-Jul-13 11:29N 52°47' E 003°09'815.8
2019-Jul-13 11:01N 52°54' E 003°15'815.9
2019-Jul-13 10:30N 53°01' E 003°19'815.9
2019-Jul-13 10:00N 53°09' E 003°23'815.9
2019-Jul-13 09:28N 53°17' E 003°27'916.0
2019-Jul-13 08:53N 53°26' E 003°31'4 4.5
2019-Jul-13 08:00N 53°30' E 003°30'1759.9 360 / 191019.7 5.4 16.512.916.7
2019-Jul-13 07:42N 53°45' E 003°44'1017.9
2019-Jul-13 07:09N 53°51' E 003°58'2813.1
2019-Jul-13 05:00N 54°12' E 004°30'8923.7 340 / 221017.510.8 15.712.317.0
2019-Jul-13 01:14N 55°27' E 005°54'521.0
2019-Jul-13 01:00N 55°31' E 005°58'2111.2
2019-Jul-13 01:00N 55°30' E 006°00'1821.9 310 / 181015.310.8 14.612.515.9
2019-Jul-13 00:10N 55°46' E 006°15'621.0
2019-Jul-12 23:52N 55°51' E 006°21'821.0
2019-Jul-12 23:29N 55°58' E 006°30'1020.9
2019-Jul-12 23:00N 56°06' E 006°40'1121.1
2019-Jul-12 22:30N 56°14' E 006°52'1019.2
2019-Jul-12 22:00N 56°22' E 007°03'917.5
2019-Jul-12 21:30N 56°28' E 007°12'917.5
2019-Jul-12 21:01N 56°35' E 007°22'917.6
2019-Jul-12 20:30N 56°42' E 007°32'917.6
2019-Jul-12 20:00N 56°50' E 007°40'4277.6
2019-Jul-12 20:00N 56°54' E 007°42'510.0 320 / 151012.9 5.4 15.2 16.0
2019-Jul-12 19:30N 56°57' E 007°48'917.6
2019-Jul-12 19:00N 57°05' E 007°57'817.0
2019-Jul-12 18:31N 57°11' E 008°07'917.1
2019-Jul-12 18:00N 57°17' E 008°18'816.5
2019-Jul-12 17:30N 57°22' E 008°32'816.7
2019-Jul-12 17:00N 57°25' E 008°46'916.7
2019-Jul-12 16:30N 57°28' E 009°00'816.7
2019-Jul-12 16:00N 57°32' E 009°14'112069.3
2019-Jul-12 16:00N 57°24' E 009°00'1938.7 320 / 41011.110.8 17.015.116.0
2019-Jul-12 15:30N 57°35' E 009°28'816.7
2019-Jul-12 15:00N 57°39' E 009°42'816.6
2019-Jul-12 14:30N 57°41' E 009°57'817.0
2019-Jul-12 14:01N 57°44' E 010°11'917.6
2019-Jul-12 13:31N 57°47' E 010°27'917.4
2019-Jul-12 13:01N 57°47' E 010°44'917.1
2019-Jul-12 12:31N 57°43' E 010°57'917.1
2019-Jul-12 12:01N 57°37' E 011°09'917.2
2019-Jul-12 11:30N 57°31' E 011°21'816.5
2019-Jul-12 11:01N 57°24' E 011°29'816.5
2019-Jul-12 10:31N 57°16' E 011°34'918.1
2019-Jul-12 10:00N 57°08' E 011°40'917.7
2019-Jul-12 09:31N 56°60' E 011°45'917.6
2019-Jul-12 09:01N 56°51' E 011°51'6326.1
2019-Jul-12 09:00N 56°54' E 011°42'1326.0 320 / 41011.510.8 17.514.416.2
2019-Jul-12 08:31N 56°43' E 011°53'917.3
2019-Jul-12 08:00N 56°35' E 011°45'917.2
2019-Jul-12 07:30N 56°28' E 011°37'1216.9
2019-Jul-12 06:47N 56°18' E 011°25'517.4
2019-Jul-12 06:30N 56°14' E 011°20'1017.3
2019-Jul-12 05:55N 56°06' E 011°09'2628.6
2019-Jul-12 05:00N 55°42' E 010°48'1610.4 120 / 71010.710.8 15.614.412.9
2019-Jul-12 03:28N 55°27' E 010°57'1118.0
2019-Jul-12 02:52N 55°17' E 011°04'616.8
2019-Jul-12 02:30N 55°11' E 011°04'1716.9
2019-Jul-12 01:30N 54°55' E 010°54'917.8
2019-Jul-12 01:01N 54°46' E 010°53'5292.4
2019-Jul-12 01:00N 54°42' E 010°48'715.5 140 / 81011.2 5.4 17.813.417.4
2019-Jul-12 00:31N 54°40' E 011°00'917.7
2019-Jul-12 00:00N 54°35' E 011°13'918.5
2019-Jul-11 23:31N 54°31' E 011°28'917.8
2019-Jul-11 23:01N 54°27' E 011°42'917.3
2019-Jul-11 22:30N 54°23' E 011°55'916.4
2019-Jul-11 21:58N 54°16' E 012°04'7 9.4
2019-Jul-11 21:16N 54°10' E 012°06'0 1.3
2019-Jul-11 21:00N 54°10' E 012°06'5 5.2
2019-Jul-11 20:00N 54°06' E 012°00'5 7.2 030 / 31012.3 5.4 21.0 15.0
2019-Jul-11 19:15N 54°10' E 012°06'4 3.5
2019-Jul-11 18:00N 54°06' E 012°06'4 1.0 030 / 61012.210.8 19.011.915.6
2019-Jul-11 13:36N 54°10' E 012°06'0 0.0
2019-Jul-11 13:27N 54°10' E 012°06'512.0
2019-Jul-11 13:00N 54°06' E 012°00'5111.8 010 / 101013.210.8 18.0 9.218.5
2019-Jul-11 12:57N 54°10' E 012°06'0 0.0
2019-Jul-11 12:24N 54°10' E 012°06'0 0.0
2019-Jul-11 11:57N 54°10' E 012°06'0 0.0
2019-Jul-11 11:27N 54°10' E 012°06'0 0.0
2019-Jul-11 10:54N 54°10' E 012°06'0 0.0
2019-Jul-11 10:24N 54°10' E 012°06'513.5
2019-Jul-11 10:00N 54°06' E 012°00'527.2 010 / 81014.3 5.4 16.6 15.8
2019-Jul-11 09:48N 54°10' E 012°06'0 0.0
2019-Jul-11 09:03N 54°10' E 012°06'0 0.0
2019-Jul-11 08:51N 54°10' E 012°06'0 0.0
2019-Jul-11 08:24N 54°10' E 012°06'0 0.0
2019-Jul-11 07:57N 54°10' E 012°06'0 0.0
2019-Jul-11 07:30N 54°10' E 012°06'0 0.0
2019-Jul-11 07:00N 54°10' E 012°06'0 0.1
2019-Jul-11 06:30N 54°10' E 012°06'2 4.1
2019-Jul-11 05:57N 54°12' E 012°04'3 5.5
2019-Jul-11 05:25N 54°15' E 012°02'614.2
2019-Jul-11 05:00N 54°21' E 011°58'612.1
2019-Jul-11 04:31N 54°26' E 012°03'713.5
2019-Jul-11 04:00N 54°30' E 012°13'137.1
2019-Jul-11 04:00N 54°30' E 012°12'815.9 300 / 191014.510.8 13.311.414.1
2019-Jul-11 03:30N 54°37' E 012°17'815.6
2019-Jul-11 03:00N 54°42' E 012°28'816.2
2019-Jul-11 02:30N 54°46' E 012°40'1116.1
2019-Jul-11 01:50N 54°51' E 012°57'716.1
2019-Jul-11 01:25N 54°53' E 013°08'917.7
2019-Jul-11 00:53N 54°56' E 013°23'821.1
2019-Jul-11 00:30N 54°59' E 013°37'510.4
2019-Jul-11 00:00N 54°54' E 013°36'1312101.1 330 / 281014.010.8 16.811.116.3
2019-Jul-10 23:59N 55°03' E 013°54'1020.3
2019-Jul-10 23:30N 55°08' E 014°08'1021.0
2019-Jul-10 23:00N 55°16' E 014°19'1121.0
2019-Jul-10 22:30N 55°24' E 014°33'1020.6
2019-Jul-10 22:00N 55°30' E 014°47'1020.6
2019-Jul-10 21:30N 55°36' E 015°02'1020.6
2019-Jul-10 21:00N 55°41' E 015°18'1220.5
2019-Jul-10 20:27N 55°46' E 015°37'714.9
2019-Jul-10 20:00N 55°48' E 015°48'3246.7 230 / 131013.210.8 14.7 15.0
2019-Jul-10 19:59N 55°50' E 015°52'6220.6
2019-Jul-10 17:00N 56°24' E 017°24'8020.0 340 / 161011.910.8 15.9 8.715.1
2019-Jul-10 13:00N 57°18' E 019°12'8220.4 340 / 141010.810.8 14.810.9
2019-Jul-10 09:00N 58°24' E 020°42'3225.6 340 / 151009.1 5.4 14.0 14.0
2019-Jul-10 07:44N 58°51' E 021°15'621.1
2019-Jul-10 07:25N 58°57' E 021°21'1021.3
2019-Jul-10 06:56N 59°06' E 021°31'920.9
2019-Jul-10 06:30N 59°13' E 021°42'1325.5
2019-Jul-10 06:00N 59°18' E 022°06'617.2 360 / 191007.810.8 14.811.515.4
2019-Jul-10 05:38N 59°23' E 022°13'921.2
2019-Jul-10 05:12N 59°28' E 022°28'420.7
2019-Jul-10 05:00N 59°30' E 022°35'1121.3
2019-Jul-10 04:30N 59°33' E 022°55'1121.5
2019-Jul-10 04:00N 59°36' E 023°15'1121.4
2019-Jul-10 03:31N 59°39' E 023°36'1121.3
2019-Jul-10 03:00N 59°42' E 023°56'1121.2
2019-Jul-10 02:30N 59°45' E 024°16'1121.2
2019-Jul-10 02:01N 59°48' E 024°36'1121.3
2019-Jul-10 01:30N 59°50' E 024°57'1121.3
2019-Jul-10 01:00N 59°53' E 025°17'1121.1
2019-Jul-10 00:30N 59°55' E 025°38'2 4.1
2019-Jul-10 00:00N 59°54' E 025°42'1462.2 010 / 201006.110.8 14.2 9.915.6
2019-Jul-09 23:46N 59°58' E 026°08'621.4
2019-Jul-09 23:30N 59°60' E 026°19'1020.0
2019-Jul-09 23:00N 60°01' E 026°39'1020.8
2019-Jul-09 22:31N 59°60' E 026°59'1020.3
2019-Jul-09 22:00N 60°03' E 027°18'1020.9
2019-Jul-09 21:30N 60°09' E 027°36'1019.6
2019-Jul-09 21:00N 60°11' E 027°55'1020.8
2019-Jul-09 20:30N 60°08' E 028°15'1019.8
2019-Jul-09 20:00N 60°03' E 028°32'5321.6
2019-Jul-09 20:00N 60°00' E 028°24'1530.1 020 / 211005.3 5.4 12.3 17.0
2019-Jul-09 19:30N 60°03' E 028°53'  

Dump ship's entire track history